sensor_id;sensor_type;location;lat;lon;timestamp;temperature;humidity
52471;DHT22;38382;53.160;7.026;2023-10-08T06:59:10;13.20;99.90
52471;DHT22;38382;53.160;7.026;2023-10-08T07:01:36;13.20;99.90
52471;DHT22;38382;53.160;7.026;2023-10-08T07:04:05;13.30;99.90
52471;DHT22;38382;53.160;7.026;2023-10-08T07:06:32;13.30;99.90
52471;DHT22;38382;53.160;7.026;2023-10-08T07:09:03;13.30;99.90
52471;DHT22;38382;53.160;7.026;2023-10-08T07:11:33;13.30;99.90
52471;DHT22;38382;53.160;7.026;2023-10-08T07:14:05;13.40;99.90
52471;DHT22;38382;53.160;7.026;2023-10-08T07:16:31;13.40;99.90
52471;DHT22;38382;53.160;7.026;2023-10-08T07:18:57;13.50;99.90
52471;DHT22;38382;53.160;7.026;2023-10-08T07:21:41;13.50;99.90
52471;DHT22;38382;53.160;7.026;2023-10-08T07:24:13;13.60;99.90
52471;DHT22;38382;53.160;7.026;2023-10-08T07:26:46;13.70;99.90
52471;DHT22;38382;53.160;7.026;2023-10-08T07:29:13;13.70;99.90
52471;DHT22;38382;53.160;7.026;2023-10-08T07:31:43;13.80;99.90
52471;DHT22;38382;53.160;7.026;2023-10-08T07:34:17;13.70;99.90
52471;DHT22;38382;53.160;7.026;2023-10-08T07:36:49;13.80;99.90
52471;DHT22;38382;53.160;7.026;2023-10-08T07:39:17;13.80;99.90
52471;DHT22;38382;53.160;7.026;2023-10-08T07:42:05;13.80;99.90
52471;DHT22;38382;53.160;7.026;2023-10-08T07:44:31;13.80;99.90
52471;DHT22;38382;53.160;7.026;2023-10-08T07:46:57;13.80;99.90
52471;DHT22;38382;53.160;7.026;2023-10-08T07:49:24;13.80;99.90
52471;DHT22;38382;53.160;7.026;2023-10-08T07:51:51;13.80;99.90
52471;DHT22;38382;53.160;7.026;2023-10-08T07:54:22;13.90;99.90
52471;DHT22;38382;53.160;7.026;2023-10-08T07:56:51;13.80;99.90
52471;DHT22;38382;53.160;7.026;2023-10-08T07:59:17;13.80;99.90
52471;DHT22;38382;53.160;7.026;2023-10-08T08:01:43;13.90;99.90
52471;DHT22;38382;53.160;7.026;2023-10-08T08:04:10;13.90;99.90
52471;DHT22;38382;53.160;7.026;2023-10-08T08:06:37;13.90;99.90
52471;DHT22;38382;53.160;7.026;2023-10-08T08:09:03;13.90;99.90
52471;DHT22;38382;53.160;7.026;2023-10-08T08:11:43;13.90;99.90
52471;DHT22;38382;53.160;7.026;2023-10-08T08:14:12;14.00;99.90
52471;DHT22;38382;53.160;7.026;2023-10-08T08:16:43;14.00;99.90
52471;DHT22;38382;53.160;7.026;2023-10-08T08:23:09;13.80;99.90
52471;DHT22;38382;53.160;7.026;2023-10-08T08:57:02;15.60;99.90
52471;DHT22;38382;53.160;7.026;2023-10-08T09:00:23;15.30;99.90
52471;DHT22;38382;53.160;7.026;2023-10-08T09:03:37;15.70;99.90
52471;DHT22;38382;53.160;7.026;2023-10-08T09:20:36;16.00;99.90
52471;DHT22;38382;53.160;7.026;2023-10-08T10:36:46;16.50;99.90
52471;DHT22;38382;53.160;7.026;2023-10-08T16:18:48;15.80;99.90
52471;DHT22;38382;53.160;7.026;2023-10-08T16:29:40;15.60;99.90
52471;DHT22;38382;53.160;7.026;2023-10-08T16:32:09;15.40;99.90
52471;DHT22;38382;53.160;7.026;2023-10-08T16:34:41;15.30;99.90
52471;DHT22;38382;53.160;7.026;2023-10-08T16:37:23;15.20;99.90
52471;DHT22;38382;53.160;7.026;2023-10-08T16:39:56;15.20;99.90
52471;DHT22;38382;53.160;7.026;2023-10-08T16:42:22;15.20;99.90
52471;DHT22;38382;53.160;7.026;2023-10-08T16:44:57;14.40;99.90
52471;DHT22;38382;53.160;7.026;2023-10-08T16:47:25;15.00;99.90
52471;DHT22;38382;53.160;7.026;2023-10-08T16:49:51;15.00;99.90
52471;DHT22;38382;53.160;7.026;2023-10-08T16:52:20;14.90;99.90
52471;DHT22;38382;53.160;7.026;2023-10-08T16:54:46;14.90;99.90
52471;DHT22;38382;53.160;7.026;2023-10-08T17:01:16;14.50;99.90
52471;DHT22;38382;53.160;7.026;2023-10-08T17:04:02;14.70;99.90
52471;DHT22;38382;53.160;7.026;2023-10-08T17:06:27;14.70;99.90
52471;DHT22;38382;53.160;7.026;2023-10-08T17:09:27;14.80;99.90
52471;DHT22;38382;53.160;7.026;2023-10-08T17:11:55;14.90;99.90
52471;DHT22;38382;53.160;7.026;2023-10-08T17:14:22;14.70;99.90
52471;DHT22;38382;53.160;7.026;2023-10-08T17:16:48;14.60;99.90
52471;DHT22;38382;53.160;7.026;2023-10-08T17:19:14;14.60;99.90
52471;DHT22;38382;53.160;7.026;2023-10-08T17:21:43;14.50;99.90
52471;DHT22;38382;53.160;7.026;2023-10-08T17:24:10;14.50;99.90
52471;DHT22;38382;53.160;7.026;2023-10-08T17:26:36;14.50;99.90
52471;DHT22;38382;53.160;7.026;2023-10-08T17:29:05;14.50;99.90
52471;DHT22;38382;53.160;7.026;2023-10-08T17:31:32;14.50;99.90
52471;DHT22;38382;53.160;7.026;2023-10-08T17:34:00;14.40;99.90
52471;DHT22;38382;53.160;7.026;2023-10-08T17:36:28;14.40;99.90
52471;DHT22;38382;53.160;7.026;2023-10-08T17:38:53;14.40;99.90
52471;DHT22;38382;53.160;7.026;2023-10-08T17:41:19;14.30;99.90
52471;DHT22;38382;53.160;7.026;2023-10-08T17:43:46;14.30;99.90
52471;DHT22;38382;53.160;7.026;2023-10-08T17:46:12;14.30;99.90
52471;DHT22;38382;53.160;7.026;2023-10-08T17:48:38;14.30;99.90
52471;DHT22;38382;53.160;7.026;2023-10-08T17:51:05;14.30;99.90
52471;DHT22;38382;53.160;7.026;2023-10-08T17:53:31;14.30;99.90
52471;DHT22;38382;53.160;7.026;2023-10-08T17:55:57;14.20;99.90
52471;DHT22;38382;53.160;7.026;2023-10-08T17:58:23;14.30;99.90
52471;DHT22;38382;53.160;7.026;2023-10-08T18:00:53;14.20;99.90
52471;DHT22;38382;53.160;7.026;2023-10-08T18:03:19;14.20;99.90
52471;DHT22;38382;53.160;7.026;2023-10-08T18:05:44;14.20;99.90
52471;DHT22;38382;53.160;7.026;2023-10-08T18:08:11;14.10;99.90
52471;DHT22;38382;53.160;7.026;2023-10-08T18:10:55;14.10;99.90
52471;DHT22;38382;53.160;7.026;2023-10-08T18:13:30;14.10;99.90
52471;DHT22;38382;53.160;7.026;2023-10-08T18:15:59;14.00;99.90
52471;DHT22;38382;53.160;7.026;2023-10-08T18:18:36;14.00;99.90
52471;DHT22;38382;53.160;7.026;2023-10-08T18:28:40;13.90;99.90
52471;DHT22;38382;53.160;7.026;2023-10-08T18:35:18;13.90;99.90
52471;DHT22;38382;53.160;7.026;2023-10-08T18:38:32;13.80;99.90
52471;DHT22;38382;53.160;7.026;2023-10-08T18:40:58;13.80;99.90
52471;DHT22;38382;53.160;7.026;2023-10-08T18:43:53;13.80;99.90
52471;DHT22;38382;53.160;7.026;2023-10-08T18:47:09;13.70;99.90
52471;DHT22;38382;53.160;7.026;2023-10-08T18:50:35;13.80;99.90
52471;DHT22;38382;53.160;7.026;2023-10-08T18:53:30;13.70;99.90
52471;DHT22;38382;53.160;7.026;2023-10-08T18:56:23;13.70;99.90
52471;DHT22;38382;53.160;7.026;2023-10-08T18:59:15;13.30;99.90
52471;DHT22;38382;53.160;7.026;2023-10-08T19:01:40;13.60;99.90
52471;DHT22;38382;53.160;7.026;2023-10-08T19:04:09;13.60;99.90
52471;DHT22;38382;53.160;7.026;2023-10-08T19:10:33;13.60;99.90
52471;DHT22;38382;53.160;7.026;2023-10-08T19:32:00;13.50;99.90
52471;DHT22;38382;53.160;7.026;2023-10-08T19:34:26;13.50;99.90
52471;DHT22;38382;53.160;7.026;2023-10-08T19:36:52;13.50;99.90
52471;DHT22;38382;53.160;7.026;2023-10-08T19:39:18;13.50;99.90
52471;DHT22;38382;53.160;7.026;2023-10-08T19:41:44;13.50;99.90
52471;DHT22;38382;53.160;7.026;2023-10-08T19:44:38;13.50;99.90
52471;DHT22;38382;53.160;7.026;2023-10-08T19:47:07;13.50;99.90
52471;DHT22;38382;53.160;7.026;2023-10-08T19:49:53;13.50;99.90
52471;DHT22;38382;53.160;7.026;2023-10-08T19:52:28;13.50;99.90
52471;DHT22;38382;53.160;7.026;2023-10-08T19:55:16;13.40;99.90
52471;DHT22;38382;53.160;7.026;2023-10-08T19:57:42;13.50;99.90
52471;DHT22;38382;53.160;7.026;2023-10-08T20:00:10;12.80;99.90
52471;DHT22;38382;53.160;7.026;2023-10-08T20:02:40;13.40;99.90
52471;DHT22;38382;53.160;7.026;2023-10-08T20:05:13;13.40;99.90
52471;DHT22;38382;53.160;7.026;2023-10-08T20:07:45;13.40;99.90
52471;DHT22;38382;53.160;7.026;2023-10-08T20:10:35;13.40;99.90
52471;DHT22;38382;53.160;7.026;2023-10-08T20:16:31;13.10;99.90
52471;DHT22;38382;53.160;7.026;2023-10-08T20:18:57;13.30;99.90
52471;DHT22;38382;53.160;7.026;2023-10-08T20:21:39;13.30;99.90
52471;DHT22;38382;53.160;7.026;2023-10-08T20:24:06;13.30;99.90
52471;DHT22;38382;53.160;7.026;2023-10-08T20:27:04;13.30;99.90
52471;DHT22;38382;53.160;7.026;2023-10-08T20:30:14;13.20;99.90
52471;DHT22;38382;53.160;7.026;2023-10-08T20:36:38;13.30;99.90
52471;DHT22;38382;53.160;7.026;2023-10-08T20:39:05;13.20;99.90
52471;DHT22;38382;53.160;7.026;2023-10-08T20:41:35;13.20;99.90
52471;DHT22;38382;53.160;7.026;2023-10-08T20:44:19;13.20;99.90
52471;DHT22;38382;53.160;7.026;2023-10-08T20:46:44;13.20;99.90
52471;DHT22;38382;53.160;7.026;2023-10-08T20:49:12;13.10;99.90
52471;DHT22;38382;53.160;7.026;2023-10-08T20:51:38;13.20;99.90
52471;DHT22;38382;53.160;7.026;2023-10-08T20:54:04;13.20;99.90
52471;DHT22;38382;53.160;7.026;2023-10-08T20:56:30;13.20;99.90
52471;DHT22;38382;53.160;7.026;2023-10-08T20:58:58;13.30;99.90
52471;DHT22;38382;53.160;7.026;2023-10-08T21:01:29;13.20;99.90
52471;DHT22;38382;53.160;7.026;2023-10-08T21:03:55;13.20;99.90
52471;DHT22;38382;53.160;7.026;2023-10-08T21:06:21;13.20;99.90
52471;DHT22;38382;53.160;7.026;2023-10-08T21:08:46;13.20;99.90
52471;DHT22;38382;53.160;7.026;2023-10-08T21:11:13;13.10;99.90
52471;DHT22;38382;53.160;7.026;2023-10-08T21:13:39;13.10;99.90
52471;DHT22;38382;53.160;7.026;2023-10-08T21:16:12;13.20;99.90
52471;DHT22;38382;53.160;7.026;2023-10-08T21:18:38;13.20;99.90
52471;DHT22;38382;53.160;7.026;2023-10-08T21:21:04;13.20;99.90
52471;DHT22;38382;53.160;7.026;2023-10-08T21:23:30;13.20;99.90
52471;DHT22;38382;53.160;7.026;2023-10-08T21:25:55;13.20;99.90
52471;DHT22;38382;53.160;7.026;2023-10-08T21:28:21;13.20;99.90
52471;DHT22;38382;53.160;7.026;2023-10-08T21:30:48;13.20;99.90
52471;DHT22;38382;53.160;7.026;2023-10-08T21:33:15;13.40;99.90
52471;DHT22;38382;53.160;7.026;2023-10-08T21:35:42;13.20;99.90
52471;DHT22;38382;53.160;7.026;2023-10-08T21:38:08;13.20;99.90
52471;DHT22;38382;53.160;7.026;2023-10-08T21:40:36;13.20;99.90
52471;DHT22;38382;53.160;7.026;2023-10-08T21:43:02;13.20;99.90
52471;DHT22;38382;53.160;7.026;2023-10-08T21:45:27;13.20;99.90
52471;DHT22;38382;53.160;7.026;2023-10-08T21:47:54;13.20;99.90
52471;DHT22;38382;53.160;7.026;2023-10-08T21:50:20;13.20;99.90
52471;DHT22;38382;53.160;7.026;2023-10-08T21:52:50;13.20;99.90
52471;DHT22;38382;53.160;7.026;2023-10-08T21:55:16;13.20;99.90
52471;DHT22;38382;53.160;7.026;2023-10-08T21:57:43;13.30;99.90
52471;DHT22;38382;53.160;7.026;2023-10-08T22:00:14;13.30;99.90
52471;DHT22;38382;53.160;7.026;2023-10-08T22:02:50;13.20;99.90
52471;DHT22;38382;53.160;7.026;2023-10-08T22:05:23;13.20;99.90
52471;DHT22;38382;53.160;7.026;2023-10-08T22:07:49;13.20;99.90
52471;DHT22;38382;53.160;7.026;2023-10-08T22:10:16;13.30;99.90
52471;DHT22;38382;53.160;7.026;2023-10-08T22:12:47;13.20;99.90
52471;DHT22;38382;53.160;7.026;2023-10-08T22:15:14;13.20;99.90
52471;DHT22;38382;53.160;7.026;2023-10-08T22:17:44;13.20;99.90
52471;DHT22;38382;53.160;7.026;2023-10-08T22:20:11;13.20;99.90
52471;DHT22;38382;53.160;7.026;2023-10-08T22:22:41;13.20;99.90
52471;DHT22;38382;53.160;7.026;2023-10-08T22:25:08;13.20;99.90
52471;DHT22;38382;53.160;7.026;2023-10-08T22:27:39;13.20;99.90
52471;DHT22;38382;53.160;7.026;2023-10-08T22:30:08;13.20;99.90
52471;DHT22;38382;53.160;7.026;2023-10-08T22:32:44;13.20;99.90
52471;DHT22;38382;53.160;7.026;2023-10-08T22:35:10;13.20;99.90
52471;DHT22;38382;53.160;7.026;2023-10-08T22:37:42;13.20;99.90
52471;DHT22;38382;53.160;7.026;2023-10-08T22:40:29;13.20;99.90
52471;DHT22;38382;53.160;7.026;2023-10-08T22:43:14;13.20;99.90
52471;DHT22;38382;53.160;7.026;2023-10-08T22:45:48;13.20;99.90
52471;DHT22;38382;53.160;7.026;2023-10-08T22:48:16;13.20;99.90
52471;DHT22;38382;53.160;7.026;2023-10-08T22:50:55;13.20;99.90
52471;DHT22;38382;53.160;7.026;2023-10-08T22:53:22;13.20;99.90
52471;DHT22;38382;53.160;7.026;2023-10-08T22:55:48;13.20;99.90
52471;DHT22;38382;53.160;7.026;2023-10-08T22:58:14;13.20;99.90
52471;DHT22;38382;53.160;7.026;2023-10-08T23:00:43;13.20;99.90
52471;DHT22;38382;53.160;7.026;2023-10-08T23:03:14;13.20;99.90
52471;DHT22;38382;53.160;7.026;2023-10-08T23:05:47;13.20;99.90
52471;DHT22;38382;53.160;7.026;2023-10-08T23:08:13;13.20;99.90
52471;DHT22;38382;53.160;7.026;2023-10-08T23:10:40;13.20;99.90
52471;DHT22;38382;53.160;7.026;2023-10-08T23:13:08;13.20;99.90
52471;DHT22;38382;53.160;7.026;2023-10-08T23:15:36;13.20;99.90
52471;DHT22;38382;53.160;7.026;2023-10-08T23:18:05;13.20;99.90
52471;DHT22;38382;53.160;7.026;2023-10-08T23:20:31;13.20;99.90
52471;DHT22;38382;53.160;7.026;2023-10-08T23:22:57;13.10;99.90
52471;DHT22;38382;53.160;7.026;2023-10-08T23:25:25;13.20;99.90
52471;DHT22;38382;53.160;7.026;2023-10-08T23:27:51;13.20;99.90
52471;DHT22;38382;53.160;7.026;2023-10-08T23:30:17;13.10;99.90
52471;DHT22;38382;53.160;7.026;2023-10-08T23:32:42;13.10;99.90
52471;DHT22;38382;53.160;7.026;2023-10-08T23:35:12;13.10;99.90
52471;DHT22;38382;53.160;7.026;2023-10-08T23:37:46;13.20;99.90
52471;DHT22;38382;53.160;7.026;2023-10-08T23:40:30;13.10;99.90
52471;DHT22;38382;53.160;7.026;2023-10-08T23:42:57;13.10;99.90
52471;DHT22;38382;53.160;7.026;2023-10-08T23:45:29;13.10;99.90
52471;DHT22;38382;53.160;7.026;2023-10-08T23:47:55;13.10;99.90
52471;DHT22;38382;53.160;7.026;2023-10-08T23:50:21;13.10;99.90
52471;DHT22;38382;53.160;7.026;2023-10-08T23:53:00;13.10;99.90
52471;DHT22;38382;53.160;7.026;2023-10-08T23:55:36;13.10;99.90
52471;DHT22;38382;53.160;7.026;2023-10-08T23:58:22;13.10;99.90
